Vistas del Mar, Puerto Rico
Current Conditions -  °F | °C
As of 8:53 AM on Thursday 23 Oct 2014 (Local Time) from TJNR Reporting Station
Clear Clear  
Wind Chill: 29°   Ceiling: Unl
Heat Index: 34°   Visibility: 10mi
Dew Point: 24°   Wind: 10mph
Humidity: 72%   Direction: 120°ESE
Pressure: 29.98"   Gusts: NA
Location:  18.3304°N, 65.6573°W
Report Text: TJNR 231253Z AUTO 12009KT 10SM CLR 29/24 A2998 RMK AO2 SLP151 T02940239
Loading
Personal Weather Stations






























Interactive Weather Map
Tropical Storm Tracking
New forecast layout! Learn more

10-Day Weather Forecast

Advertisements
Track Severe Weather on mobile